Main page
METAR-TAF:

METAR-TAF

Airports :

Chita, Russia

Kadala Airport

latitude: 52-05N, longitude: 113-29E, elevation: 685 m

Current weather observation

The report was made 20 minutes ago, at 10:00 UTC
Wind 16 kt from the West/Northwest
Temperature 15°C
Humidity 21%
Pressure 1011 hPa
Visibility 10 km or more
Scattered clouds at a height of 5000 ft, Cumulonimbus.

METAR: UIAA 281000Z 30008MPS 9999 SCT050CB 15/M07 Q1011 R29/CLRD70 NOSIG RMK QFE700/0933

Time: 19:20 (10:20 UTC)

Forecast

The report was made 2 hours and 20 minutes ago, at 08:00 UTC
Forecast valid from 28 at 09 UTC to 29 at 09 UTC
Wind 16 kt from the West/Northwest with gusts up to 29 kt
Visibility 10 km or more
Scattered clouds at a height of 4000 ft, Cumulonimbus.
Temporary
from 28 at 09 UTC to 28 at 11 UTC
Wind 25 kt from the Northwest with gusts up to 39 kt
Becoming
from 28 at 13 UTC to 28 at 15 UTC
Wind 12 kt from the West/Northwest

TAF: UIAA 280800Z 2809/2909 30008G15MPS 9999 SCT040CB TEMPO 2809/2811 32013G20MPS BECMG 2813/2815 30006MPS NSC

Weather observations and forecasts of more than 4000 airports (METAR and TAF reports).

The available stations are represented by yellow and red dots on the map.

Hover mouse over dot to see the name of the station.

Then click to see weather observations and forecasts.

To change the map : click on the green buttons with a black cross to zoom in, on the green button with a dash to zoom out, or on the green arrows for adjacent maps.


METAR-TAF: